createdAt,value
2019-04-16T00:00:23.258Z,23.77
2019-04-16T00:02:57.032Z,24.02
2019-04-16T00:05:39.620Z,23.25
2019-04-16T00:08:26.643Z,23.80
2019-04-16T00:10:59.883Z,23.12
2019-04-16T00:13:30.324Z,23.77
2019-04-16T00:15:59.113Z,23.10
2019-04-16T00:18:27.547Z,24.32
2019-04-16T00:21:10.022Z,22.70
2019-04-16T00:23:38.524Z,23.85
2019-04-16T00:26:08.114Z,21.93
2019-04-16T00:28:36.543Z,22.52
2019-04-16T00:31:05.848Z,22.70
2019-04-16T00:33:34.352Z,23.87
2019-04-16T00:36:02.774Z,24.18
2019-04-16T00:38:40.574Z,23.77
2019-04-16T00:41:02.234Z,23.22
2019-04-16T00:43:30.727Z,22.05
2019-04-16T00:45:59.235Z,20.05
2019-04-16T00:48:27.657Z,21.15
2019-04-16T00:50:56.175Z,20.43
2019-04-16T00:53:24.624Z,20.82
2019-04-16T00:55:53.066Z,20.82
2019-04-16T00:58:21.485Z,20.80
2019-04-16T01:00:50.235Z,21.40
2019-04-16T01:03:18.685Z,20.88
2019-04-16T01:05:47.111Z,21.97
2019-04-16T01:08:15.551Z,21.37
2019-04-16T01:10:44.105Z,22.95
2019-04-16T01:13:12.622Z,23.50
2019-04-16T01:15:41.118Z,22.27
2019-04-16T01:18:09.545Z,22.27
2019-04-16T01:20:40.416Z,24.40
2019-04-16T01:23:08.135Z,23.00
2019-04-16T01:25:36.674Z,22.60
2019-04-16T01:28:06.779Z,21.57
2019-04-16T01:30:37.208Z,22.55
2019-04-16T01:33:07.365Z,22.65
2019-04-16T01:35:51.787Z,23.52
2019-04-16T01:38:27.692Z,22.15
2019-04-16T01:41:01.851Z,22.17
2019-04-16T01:43:30.375Z,22.20
2019-04-16T01:46:01.489Z,21.52
2019-04-16T01:48:29.027Z,23.22
2019-04-16T01:50:57.558Z,23.90
2019-04-16T01:53:25.999Z,22.75
2019-04-16T01:55:57.029Z,24.45
2019-04-16T01:58:24.661Z,23.40
2019-04-16T02:00:53.298Z,21.25
2019-04-16T02:03:21.880Z,22.80
2019-04-16T02:05:54.599Z,24.45
2019-04-16T02:08:20.575Z,23.05
2019-04-16T02:10:49.095Z,22.42
2019-04-16T02:13:17.578Z,23.52
2019-04-16T02:15:46.106Z,22.20
2019-04-16T02:18:14.613Z,23.18
2019-04-16T02:20:43.049Z,22.45
2019-04-16T02:23:13.495Z,22.67
2019-04-16T02:25:41.847Z,21.33
2019-04-16T02:28:10.277Z,22.90
2019-04-16T02:30:39.838Z,23.77
2019-04-16T02:33:08.591Z,21.60
2019-04-16T02:35:37.047Z,21.65
2019-04-16T02:38:10.474Z,23.15
2019-04-16T02:40:36.216Z,23.05
2019-04-16T02:43:06.995Z,23.12
2019-04-16T02:45:34.883Z,23.12
2019-04-16T02:48:03.441Z,23.47
2019-04-16T02:50:39.975Z,22.93
2019-04-16T02:53:26.173Z,22.48
2019-04-16T02:55:56.302Z,25.35
2019-04-16T02:58:26.598Z,24.10
2019-04-16T03:00:56.967Z,25.57
2019-04-16T03:03:29.852Z,25.70
2019-04-16T03:06:01.046Z,24.75
2019-04-16T03:08:28.648Z,24.02
2019-04-16T03:10:57.226Z,24.07
2019-04-16T03:13:26.823Z,24.77
2019-04-16T03:15:57.026Z,23.70
2019-04-16T03:18:27.171Z,24.98
2019-04-16T03:20:56.630Z,27.40
2019-04-16T03:23:25.127Z,24.80
2019-04-16T03:25:53.560Z,83.65
2019-04-16T03:28:23.599Z,56.33
2019-04-16T03:30:52.479Z,51.35
2019-04-16T03:33:20.963Z,47.08
2019-04-16T03:35:49.479Z,31.73
2019-04-16T03:38:18.012Z,25.30
2019-04-16T03:40:46.464Z,27.45
2019-04-16T03:43:14.882Z,28.05
2019-04-16T03:45:43.394Z,27.17
2019-04-16T03:48:11.869Z,24.63
2019-04-16T03:50:40.402Z,25.77
2019-04-16T03:53:08.838Z,24.52
2019-04-16T03:55:37.339Z,27.35
2019-04-16T03:58:07.197Z,29.63
2019-04-16T04:00:36.076Z,31.27
2019-04-16T04:03:04.504Z,28.27
2019-04-16T04:05:34.970Z,28.40
2019-04-16T04:08:03.396Z,25.52
2019-04-16T04:10:36.810Z,28.15
2019-04-16T04:13:04.761Z,27.87
2019-04-16T04:15:32.375Z,25.45
2019-04-16T04:18:00.803Z,26.95
2019-04-16T04:20:29.295Z,27.62
2019-04-16T04:22:57.949Z,27.30
2019-04-16T04:25:26.331Z,25.68
2019-04-16T04:27:57.510Z,27.87
2019-04-16T04:30:28.805Z,29.30
2019-04-16T04:32:57.299Z,34.53
2019-04-16T04:35:25.747Z,28.95
2019-04-16T04:37:54.298Z,29.32
2019-04-16T04:40:22.735Z,33.38
2019-04-16T04:42:51.153Z,27.48
2019-04-16T04:45:19.654Z,28.50
2019-04-16T04:47:51.178Z,27.30
2019-04-16T04:50:18.523Z,26.62
2019-04-16T04:52:46.961Z,25.72
2019-04-16T04:55:15.650Z,26.95
2019-04-16T04:57:44.080Z,26.37
2019-04-16T05:00:12.846Z,24.23
2019-04-16T05:02:43.768Z,26.15
2019-04-16T05:05:24.092Z,27.40
2019-04-16T05:07:49.494Z,23.87
2019-04-16T05:10:17.916Z,24.40
2019-04-16T05:12:46.454Z,24.80
2019-04-16T05:15:14.938Z,24.52
2019-04-16T05:17:43.542Z,26.82
2019-04-16T05:20:14.869Z,28.42
2019-04-16T05:22:42.309Z,25.40
2019-04-16T05:25:10.886Z,29.07
2019-04-16T05:27:41.323Z,27.67
2019-04-16T05:30:09.817Z,26.57
2019-04-16T05:32:38.256Z,28.50
2019-04-16T05:35:10.146Z,26.77
2019-04-16T05:37:37.989Z,29.75
2019-04-16T05:40:08.237Z,26.65
2019-04-16T05:42:36.664Z,25.65
2019-04-16T05:45:06.674Z,26.12
2019-04-16T05:47:35.156Z,26.20
2019-04-16T05:50:03.890Z,25.02
2019-04-16T05:52:35.954Z,26.10
2019-04-16T05:55:07.040Z,25.85
2019-04-16T05:57:37.210Z,29.20
2019-04-16T06:00:10.461Z,34.27
2019-04-16T06:02:43.175Z,29.48
2019-04-16T06:05:12.316Z,27.00
2019-04-16T06:07:40.784Z,26.25
2019-04-16T06:10:10.248Z,27.40
2019-04-16T06:12:43.653Z,26.87
2019-04-16T06:15:30.692Z,26.80
2019-04-16T06:18:17.771Z,27.00
2019-04-16T06:20:49.433Z,26.35
2019-04-16T06:23:34.471Z,27.40
2019-04-16T06:26:17.089Z,27.30
2019-04-16T06:29:02.133Z,28.77
2019-04-16T06:31:32.194Z,27.17
2019-04-16T06:34:02.291Z,28.15
2019-04-16T06:36:35.176Z,25.48
2019-04-16T06:39:09.628Z,22.15
2019-04-16T06:41:47.859Z,24.77
2019-04-16T06:44:14.660Z,25.00
2019-04-16T06:46:44.784Z,24.20
2019-04-16T06:49:23.598Z,23.20
2019-04-16T06:52:16.084Z,29.25
2019-04-16T06:54:54.195Z,25.82
2019-04-16T06:57:26.926Z,27.27
2019-04-16T07:00:07.196Z,26.20
2019-04-16T07:03:02.305Z,24.55
2019-04-16T07:05:36.101Z,24.05
2019-04-16T07:08:09.161Z,26.02
2019-04-16T07:10:44.627Z,25.23
2019-04-16T07:13:11.251Z,25.50
2019-04-16T07:15:39.694Z,25.70
2019-04-16T07:18:08.153Z,24.40
2019-04-16T07:20:36.660Z,23.60
2019-04-16T07:23:05.160Z,23.55
2019-04-16T07:25:39.761Z,22.70
2019-04-16T07:28:05.489Z,26.00
2019-04-16T07:30:39.186Z,24.82
2019-04-16T07:33:10.752Z,24.52
2019-04-16T07:35:55.915Z,24.12
2019-04-16T07:38:35.211Z,23.62
2019-04-16T07:41:19.794Z,25.82
2019-04-16T07:44:10.967Z,22.82
2019-04-16T07:46:44.202Z,25.02
2019-04-16T07:49:26.222Z,24.18
2019-04-16T07:52:12.194Z,24.80
2019-04-16T07:54:58.154Z,23.42
2019-04-16T07:57:26.884Z,23.92
2019-04-16T07:59:55.344Z,22.07
2019-04-16T08:02:23.918Z,23.38
2019-04-16T08:04:52.396Z,22.25
2019-04-16T08:07:21.370Z,20.70
2019-04-16T08:09:50.013Z,20.90
2019-04-16T08:12:29.850Z,21.00
2019-04-16T08:14:48.693Z,20.30
2019-04-16T08:17:17.123Z,20.10
2019-04-16T08:19:49.026Z,18.70
2019-04-16T08:22:16.654Z,19.42
2019-04-16T08:24:46.896Z,19.20
2019-04-16T08:27:19.033Z,20.55
2019-04-16T08:29:45.601Z,18.00
2019-04-16T08:32:15.995Z,17.50
2019-04-16T08:34:44.374Z,17.70
2019-04-16T08:37:12.805Z,19.77
2019-04-16T08:39:41.255Z,18.85
2019-04-16T08:42:09.724Z,19.77
2019-04-16T08:44:38.467Z,17.52
2019-04-16T08:47:11.542Z,18.55
2019-04-16T08:49:37.127Z,18.32
2019-04-16T08:52:09.856Z,18.37
2019-04-16T08:54:35.933Z,18.45
2019-04-16T08:57:04.514Z,18.80
2019-04-16T08:59:33.491Z,17.80
2019-04-16T09:02:01.942Z,18.35
2019-04-16T09:04:34.115Z,16.00
2019-04-16T09:07:11.605Z,17.48
2019-04-16T09:09:38.475Z,15.93
2019-04-16T09:12:09.411Z,16.73
2019-04-16T09:14:39.662Z,15.20
2019-04-16T09:17:12.279Z,14.68
2019-04-16T09:19:42.713Z,15.08
2019-04-16T09:22:15.745Z,20.40
2019-04-16T09:25:01.115Z,17.23
2019-04-16T09:27:40.255Z,17.12
2019-04-16T09:30:19.937Z,12.98
2019-04-16T09:33:00.415Z,15.05
2019-04-16T09:35:30.579Z,14.85
2019-04-16T09:38:00.758Z,13.15
2019-04-16T09:40:39.918Z,11.22
2019-04-16T09:43:17.603Z,10.82
2019-04-16T09:45:42.974Z,10.40
2019-04-16T09:48:11.433Z,10.88
2019-04-16T09:50:46.347Z,11.95
2019-04-16T09:53:10.011Z,10.20
2019-04-16T09:55:38.522Z,11.70
2019-04-16T09:58:11.725Z,11.68
2019-04-16T10:00:42.023Z,13.05
2019-04-16T10:03:15.018Z,12.68
2019-04-16T10:05:43.469Z,13.85
2019-04-16T10:08:12.642Z,12.55
2019-04-16T10:10:41.910Z,14.05
2019-04-16T10:13:10.434Z,13.70
2019-04-16T10:15:39.059Z,13.62
2019-04-16T10:18:07.539Z,13.50
2019-04-16T10:20:35.980Z,12.70
2019-04-16T10:23:06.153Z,13.13
2019-04-16T10:25:34.843Z,12.50
2019-04-16T10:28:05.666Z,13.60
2019-04-16T10:30:39.000Z,13.13
2019-04-16T10:33:07.453Z,14.55
2019-04-16T10:35:35.906Z,13.58
2019-04-16T10:38:06.121Z,13.43
2019-04-16T10:40:39.093Z,13.03
2019-04-16T10:43:12.117Z,13.13
2019-04-16T10:45:42.225Z,13.45
2019-04-16T10:48:27.666Z,15.15
2019-04-16T10:50:57.857Z,12.00
2019-04-16T10:53:44.083Z,13.32
2019-04-16T10:56:30.793Z,13.25
2019-04-16T10:59:00.877Z,13.90
2019-04-16T11:01:35.187Z,13.32
2019-04-16T11:04:20.693Z,14.73
2019-04-16T11:06:53.554Z,13.80
2019-04-16T11:09:22.104Z,12.90
2019-04-16T11:11:50.580Z,12.10
2019-04-16T11:14:19.075Z,13.80
2019-04-16T11:16:49.187Z,13.28
2019-04-16T11:19:17.780Z,13.00
2019-04-16T11:21:46.279Z,14.28
2019-04-16T11:24:15.761Z,12.53
2019-04-16T11:26:44.879Z,13.08
2019-04-16T11:29:13.335Z,12.63
2019-04-16T11:31:41.862Z,12.43
2019-04-16T11:34:11.711Z,12.23
2019-04-16T11:36:40.277Z,12.00
2019-04-16T11:39:10.529Z,11.60
2019-04-16T11:41:39.191Z,11.53
2019-04-16T11:44:15.572Z,11.05
2019-04-16T11:46:38.054Z,10.95
2019-04-16T11:49:06.573Z,10.93
2019-04-16T11:51:35.027Z,11.97
2019-04-16T11:54:03.509Z,10.05
2019-04-16T11:56:31.921Z,9.83
2019-04-16T11:59:00.490Z,8.05
2019-04-16T12:01:48.940Z,6.80
2019-04-16T12:04:28.079Z,6.25
2019-04-16T12:07:06.010Z,8.20
2019-04-16T12:09:35.667Z,9.90
2019-04-16T12:12:24.109Z,11.18
2019-04-16T12:15:00.788Z,10.65
2019-04-16T12:17:42.844Z,9.50
2019-04-16T12:20:25.625Z,10.32
2019-04-16T12:23:10.940Z,9.75
2019-04-16T12:25:43.926Z,13.50
2019-04-16T12:28:14.023Z,10.65
2019-04-16T12:31:00.296Z,10.35
2019-04-16T12:33:33.250Z,9.53
2019-04-16T12:36:19.430Z,9.30
2019-04-16T12:39:07.687Z,8.80
2019-04-16T12:41:37.814Z,10.82
2019-04-16T12:44:10.802Z,10.38
2019-04-16T12:46:40.942Z,9.25
2019-04-16T12:49:26.918Z,8.58
2019-04-16T12:51:56.976Z,6.83
2019-04-16T12:54:43.220Z,7.00
2019-04-16T12:57:14.510Z,7.85
2019-04-16T12:59:48.649Z,7.62
2019-04-16T13:02:19.813Z,6.72
2019-04-16T13:04:52.674Z,6.92
2019-04-16T13:07:34.841Z,6.35
2019-04-16T13:10:11.705Z,6.10
2019-04-16T13:12:50.539Z,5.30
2019-04-16T13:15:23.395Z,6.45
2019-04-16T13:17:53.449Z,6.53
2019-04-16T13:20:29.321Z,5.60
2019-04-16T13:23:14.485Z,5.20
2019-04-16T13:26:00.045Z,3.80
2019-04-16T13:28:28.682Z,3.95
2019-04-16T13:30:57.114Z,4.25
2019-04-16T13:33:25.863Z,4.78
2019-04-16T13:35:54.387Z,3.70
2019-04-16T13:38:24.444Z,4.00
2019-04-16T13:40:54.017Z,4.08
2019-04-16T13:43:27.369Z,4.05
2019-04-16T13:45:58.250Z,4.10
2019-04-16T13:48:36.826Z,4.10
2019-04-16T13:51:12.652Z,3.90
2019-04-16T13:53:38.832Z,3.75
2019-04-16T13:56:23.981Z,3.15
2019-04-16T13:58:59.238Z,3.25
2019-04-16T14:01:45.073Z,3.67
2019-04-16T14:04:10.747Z,4.25
2019-04-16T14:06:39.167Z,4.10
2019-04-16T14:09:08.743Z,3.72
2019-04-16T14:11:37.938Z,3.52
2019-04-16T14:14:07.625Z,4.35
2019-04-16T14:16:36.829Z,3.83
2019-04-16T14:19:06.762Z,4.08
2019-04-16T14:21:35.608Z,3.85
2019-04-16T14:24:04.113Z,4.03
2019-04-16T14:26:32.530Z,4.50
2019-04-16T14:29:05.533Z,5.17
2019-04-16T14:31:31.333Z,19.70
2019-04-16T14:34:03.923Z,5.15
2019-04-16T14:36:32.395Z,3.80
2019-04-16T14:39:06.770Z,4.22
2019-04-16T14:41:32.684Z,3.95
2019-04-16T14:44:15.484Z,3.83
2019-04-16T14:46:43.916Z,3.60
2019-04-16T14:49:15.065Z,3.33
2019-04-16T14:51:42.603Z,5.62
2019-04-16T14:54:15.859Z,3.50
2019-04-16T14:56:48.910Z,4.12
2019-04-16T14:59:35.686Z,11.10
2019-04-16T15:02:18.303Z,7.00
2019-04-16T15:05:03.335Z,18.52
2019-04-16T15:07:33.468Z,8.68
2019-04-16T15:10:19.734Z,6.47
2019-04-16T15:12:55.633Z,8.05
2019-04-16T15:15:34.545Z,7.40
2019-04-16T15:18:20.817Z,8.80
2019-04-16T15:21:11.968Z,7.70
2019-04-16T15:23:40.901Z,8.25
2019-04-16T15:26:23.443Z,8.83
2019-04-16T15:29:08.573Z,7.87
2019-04-16T15:31:54.816Z,10.08
2019-04-16T15:34:24.968Z,8.75
2019-04-16T15:36:55.256Z,8.18
2019-04-16T15:39:25.338Z,8.28
2019-04-16T15:42:16.281Z,10.08
2019-04-16T15:44:43.607Z,8.48
2019-04-16T15:47:14.935Z,9.38
2019-04-16T15:49:49.681Z,9.50
2019-04-16T15:52:22.944Z,7.90
2019-04-16T15:54:55.721Z,8.70
2019-04-16T15:57:31.868Z,10.58
2019-04-16T16:00:10.960Z,10.08
2019-04-16T16:02:57.607Z,11.18
2019-04-16T16:05:30.828Z,11.63
2019-04-16T16:08:03.751Z,17.70
2019-04-16T16:10:45.108Z,15.58
2019-04-16T16:13:10.331Z,14.50
2019-04-16T16:15:40.493Z,10.30
2019-04-16T16:18:09.009Z,10.03
2019-04-16T16:20:37.545Z,11.95
2019-04-16T16:23:06.135Z,19.20
2019-04-16T16:25:34.600Z,33.00
2019-04-16T16:28:03.148Z,28.42
2019-04-16T16:30:31.639Z,24.82
2019-04-16T16:33:00.103Z,18.07
2019-04-16T16:35:28.646Z,15.88
2019-04-16T16:37:57.178Z,18.55
2019-04-16T16:40:25.728Z,12.35
2019-04-16T16:42:54.469Z,10.90
2019-04-16T16:45:24.675Z,15.93
2019-04-16T16:47:53.216Z,13.47
2019-04-16T16:50:21.714Z,13.93
2019-04-16T16:52:54.871Z,12.65
2019-04-16T16:55:28.073Z,14.28
2019-04-16T16:58:14.552Z,16.90
2019-04-16T17:00:56.398Z,14.00
2019-04-16T17:03:28.761Z,15.43
2019-04-16T17:05:59.181Z,14.38
2019-04-16T17:08:30.204Z,15.65
2019-04-16T17:11:13.989Z,16.97
2019-04-16T17:13:29.045Z,12.25
2019-04-16T17:15:57.558Z,13.75
2019-04-16T17:18:26.010Z,22.10
2019-04-16T17:20:54.454Z,13.32
2019-04-16T17:23:25.624Z,12.37
2019-04-16T17:25:56.993Z,9.98
2019-04-16T17:28:23.519Z,10.60
2019-04-16T17:30:52.030Z,12.75
2019-04-16T17:33:20.532Z,14.05
2019-04-16T17:35:49.138Z,13.32
2019-04-16T17:38:17.602Z,14.20
2019-04-16T17:41:02.879Z,13.75
2019-04-16T17:44:00.352Z,11.70
2019-04-16T17:46:27.266Z,11.03
2019-04-16T17:49:09.430Z,11.43
2019-04-16T17:51:42.305Z,10.50
2019-04-16T17:54:27.716Z,11.50
2019-04-16T17:57:01.180Z,12.00
2019-04-16T17:59:47.529Z,11.63
2019-04-16T18:02:33.840Z,12.18
2019-04-16T18:05:10.015Z,11.43
2019-04-16T18:07:56.460Z,11.50
2019-04-16T18:10:33.948Z,12.00
2019-04-16T18:13:07.622Z,11.40
2019-04-16T18:15:53.279Z,11.00
2019-04-16T18:18:23.375Z,10.25
2019-04-16T18:20:58.724Z,9.50
2019-04-16T18:23:31.288Z,10.05
2019-04-16T18:26:01.512Z,9.48
2019-04-16T18:28:49.523Z,10.13
2019-04-16T18:31:23.209Z,10.53
2019-04-16T18:33:51.435Z,10.05
2019-04-16T18:36:21.682Z,8.70
2019-04-16T18:39:03.186Z,10.20
2019-04-16T18:41:38.368Z,8.65
2019-04-16T18:44:25.015Z,9.15
2019-04-16T18:46:55.101Z,10.03
2019-04-16T18:49:28.278Z,10.08
2019-04-16T18:51:56.765Z,10.40
2019-04-16T18:54:25.534Z,11.53
2019-04-16T18:56:54.185Z,10.45
2019-04-16T18:59:22.796Z,10.85
2019-04-16T19:01:52.993Z,11.10
2019-04-16T19:04:21.507Z,10.35
2019-04-16T19:06:50.158Z,11.90
2019-04-16T19:09:20.810Z,10.48
2019-04-16T19:11:48.873Z,11.12
2019-04-16T19:14:17.476Z,12.00
2019-04-16T19:16:46.053Z,12.53
2019-04-16T19:19:14.644Z,17.42
2019-04-16T19:21:43.155Z,19.02
2019-04-16T19:24:11.735Z,16.70
2019-04-16T19:26:40.336Z,14.23
2019-04-16T19:29:13.135Z,14.13
2019-04-16T19:31:39.095Z,11.90
2019-04-16T19:34:10.278Z,12.30
2019-04-16T19:36:37.900Z,12.50
2019-04-16T19:39:10.260Z,12.40
2019-04-16T19:41:41.050Z,11.68
2019-04-16T19:44:08.277Z,11.55
2019-04-16T19:46:37.064Z,11.10
2019-04-16T19:49:05.941Z,11.20
2019-04-16T19:51:34.506Z,10.93
2019-04-16T19:54:02.938Z,10.38
2019-04-16T19:56:33.623Z,12.68
2019-04-16T19:59:02.592Z,10.20
2019-04-16T20:01:31.343Z,10.80
2019-04-16T20:04:00.306Z,10.85
2019-04-16T20:06:29.176Z,12.05
2019-04-16T20:08:57.889Z,10.58
2019-04-16T20:11:26.411Z,13.50
2019-04-16T20:13:54.853Z,10.88
2019-04-16T20:16:23.317Z,11.08
2019-04-16T20:18:51.861Z,10.72
2019-04-16T20:21:20.317Z,11.10
2019-04-16T20:23:48.816Z,11.05
2019-04-16T20:26:17.303Z,11.15
2019-04-16T20:28:48.609Z,11.35
2019-04-16T20:31:16.093Z,11.75
2019-04-16T20:33:44.597Z,10.55
2019-04-16T20:36:13.041Z,12.47
2019-04-16T20:38:41.542Z,12.25
2019-04-16T20:41:10.095Z,11.57
2019-04-16T20:43:38.567Z,11.03
2019-04-16T20:46:07.141Z,11.38
2019-04-16T20:48:35.630Z,12.00
2019-04-16T20:51:04.561Z,10.72
2019-04-16T20:53:33.682Z,13.40
2019-04-16T20:56:02.222Z,15.75
2019-04-16T20:58:32.058Z,17.65
2019-04-16T21:01:02.210Z,16.97
2019-04-16T21:03:31.460Z,12.60
2019-04-16T21:06:00.296Z,11.85
2019-04-16T21:08:28.741Z,11.90
2019-04-16T21:10:59.560Z,11.55
2019-04-16T21:13:27.457Z,11.10
2019-04-16T21:15:57.226Z,11.45
2019-04-16T21:18:26.219Z,12.13
2019-04-16T21:20:54.688Z,12.10
2019-04-16T21:23:23.208Z,11.97
2019-04-16T21:25:51.661Z,11.28
2019-04-16T21:28:24.463Z,10.85
2019-04-16T21:30:54.624Z,10.10
2019-04-16T21:33:33.549Z,10.55
2019-04-16T21:36:06.525Z,11.00
2019-04-16T21:38:45.228Z,9.55
2019-04-16T21:41:14.515Z,9.90
2019-04-16T21:43:43.000Z,8.68
2019-04-16T21:46:11.452Z,9.25
2019-04-16T21:48:39.925Z,7.70
2019-04-16T21:51:08.473Z,8.53
2019-04-16T21:53:36.905Z,8.33
2019-04-16T21:56:08.174Z,8.38
2019-04-16T21:58:35.662Z,8.45
2019-04-16T22:01:05.820Z,8.75
2019-04-16T22:03:41.882Z,8.10
2019-04-16T22:06:06.469Z,9.33
2019-04-16T22:08:34.887Z,9.38
2019-04-16T22:11:03.992Z,7.80
2019-04-16T22:13:32.473Z,7.35
2019-04-16T22:16:00.960Z,7.80
2019-04-16T22:18:29.647Z,8.65
2019-04-16T22:20:58.137Z,7.47
2019-04-16T22:23:26.688Z,9.13
2019-04-16T22:25:57.135Z,9.63
2019-04-16T22:28:25.379Z,15.32
2019-04-16T22:30:53.803Z,13.90
2019-04-16T22:33:22.345Z,11.00
2019-04-16T22:35:50.771Z,11.15
2019-04-16T22:38:19.220Z,10.35
2019-04-16T22:40:55.002Z,9.88
2019-04-16T22:43:27.143Z,8.90
2019-04-16T22:46:03.334Z,8.50
2019-04-16T22:48:31.758Z,8.03
2019-04-16T22:51:00.242Z,8.60
2019-04-16T22:53:28.753Z,7.45
2019-04-16T22:55:58.090Z,7.15
2019-04-16T22:58:28.187Z,7.30
2019-04-16T23:01:01.417Z,7.30
2019-04-16T23:03:30.043Z,8.25
2019-04-16T23:06:00.914Z,7.70
2019-04-16T23:08:28.710Z,7.40
2019-04-16T23:10:57.144Z,8.38
2019-04-16T23:13:25.600Z,7.90
2019-04-16T23:15:54.025Z,7.70
2019-04-16T23:18:22.479Z,7.45
2019-04-16T23:20:50.972Z,7.10
2019-04-16T23:23:19.476Z,6.83
2019-04-16T23:25:47.910Z,7.37
2019-04-16T23:28:16.600Z,7.05
2019-04-16T23:30:48.017Z,7.33
2019-04-16T23:33:15.219Z,8.45
2019-04-16T23:35:44.681Z,7.55
2019-04-16T23:38:13.184Z,8.13
2019-04-16T23:40:43.939Z,8.08
2019-04-16T23:43:29.641Z,7.62
2019-04-16T23:46:06.513Z,7.85
2019-04-16T23:48:47.867Z,8.00
2019-04-16T23:51:28.651Z,6.90
2019-04-16T23:54:14.709Z,8.00
2019-04-16T23:56:45.053Z,8.13
2019-04-16T23:59:17.670Z,8.30
